Time;durP1;ratioP1;P1;durP2;ratioP2;P2;SDS_P1;SDS_P2;PMS_P1;PMS_P2;Temp;Humidity;BMP_temperature;BMP_pressure;BME280_temperature;BME280_humidity;BME280_pressure;Samples;Min_cycle;Max_cycle;Signal;HPM_P1;HPM_P2
2022/04/14 00:02:24;;;;;;;2.60;1.17;;;;;;;20.40;29.38;99634.06;5136148;27;20398;-62
2022/04/14 00:04:49;;;;;;;2.00;1.15;;;;;;;20.41;29.18;99633.06;5147237;27;20030;-63
2022/04/14 00:07:15;;;;;;;4.03;1.60;;;;;;;20.45;29.33;99635.38;5144312;27;20596;-65
2022/04/14 00:09:41;;;;;;;4.00;1.25;;;;;;;20.46;29.45;99637.06;5147625;27;20031;-64
2022/04/14 00:12:07;;;;;;;1.63;1.17;;;;;;;20.46;29.45;99626.31;5135816;27;20130;-62
2022/04/14 00:14:33;;;;;;;2.03;1.05;;;;;;;20.47;29.22;99626.13;5135845;27;20469;-60
2022/04/14 00:16:59;;;;;;;1.48;0.75;;;;;;;20.48;29.23;99617.03;5132497;27;20379;-61
2022/04/14 00:19:24;;;;;;;2.30;1.20;;;;;;;20.49;29.27;99615.19;5135093;27;20483;-63
2022/04/14 00:21:50;;;;;;;2.53;1.10;;;;;;;20.50;29.22;99620.38;5137876;27;20031;-64
2022/04/14 00:24:15;;;;;;;1.83;0.85;;;;;;;20.50;29.36;99619.56;5127940;27;20469;-63
2022/04/14 00:26:41;;;;;;;2.22;1.10;;;;;;;20.46;29.61;99619.06;5114826;28;20047;-62
2022/04/14 00:29:06;;;;;;;1.92;0.90;;;;;;;20.48;29.81;99621.59;5133662;27;20023;-62
2022/04/14 00:31:32;;;;;;;1.65;1.00;;;;;;;20.48;29.62;99625.09;5134998;27;20748;-61
2022/04/14 00:33:57;;;;;;;1.65;0.73;;;;;;;20.49;29.18;99632.16;5135081;27;20039;-61
2022/04/14 00:36:23;;;;;;;2.47;0.90;;;;;;;20.52;29.88;99618.34;5135069;27;20031;-65
2022/04/14 00:38:48;;;;;;;1.23;0.75;;;;;;;20.51;29.61;99615.84;5134860;27;20063;-62
2022/04/14 00:41:14;;;;;;;1.85;0.80;;;;;;;20.54;30.07;99610.09;5135247;27;20039;-62
2022/04/14 00:43:39;;;;;;;2.28;1.13;;;;;;;20.55;29.98;99609.91;5138494;27;20556;-62
2022/04/14 00:46:05;;;;;;;1.40;0.85;;;;;;;20.58;29.48;99619.47;5155956;27;20066;-63
2022/04/14 00:48:31;;;;;;;1.67;0.82;;;;;;;20.55;29.15;99604.53;5145062;27;20371;-61
2022/04/14 00:50:57;;;;;;;2.05;1.00;;;;;;;20.60;29.53;99606.66;5134753;27;20031;-63
2022/04/14 00:53:23;;;;;;;4.38;0.80;;;;;;;20.60;29.92;99609.38;5134900;27;20027;-62
2022/04/14 00:55:50;;;;;;;1.65;0.82;;;;;;;20.61;29.89;99602.97;5134540;27;20406;-63
2022/04/14 00:58:15;;;;;;;1.70;0.80;;;;;;;20.62;29.80;99610.00;5137342;27;20061;-62
2022/04/14 01:03:25;;;;;;;1.63;0.73;;;;;;;20.62;29.35;99615.41;5141227;27;20460;-63
2022/04/14 01:05:53;;;;;;;1.90;0.80;;;;;;;20.29;29.83;99615.72;5140076;27;20054;-69
2022/04/14 01:08:19;;;;;;;3.35;0.90;;;;;;;19.49;30.59;99615.94;5140989;27;20027;-63
2022/04/14 01:10:49;;;;;;;1.80;1.00;;;;;;;18.69;31.33;99617.78;5144768;27;20035;-64
2022/04/14 01:13:16;;;;;;;2.85;0.90;;;;;;;18.02;32.38;99615.38;5126461;27;20061;-63
2022/04/14 01:15:46;;;;;;;1.45;0.65;;;;;;;17.99;32.12;99616.56;5113352;27;20026;-63
2022/04/14 01:18:12;;;;;;;5.10;0.75;;;;;;;18.25;31.80;99627.09;5116484;27;20023;-62
2022/04/14 01:20:41;;;;;;;1.83;0.73;;;;;;;18.52;31.48;99621.53;5115224;27;20042;-63
2022/04/14 01:23:08;;;;;;;1.65;0.70;;;;;;;18.77;31.11;99616.94;5122400;27;20027;-64
2022/04/14 01:25:35;;;;;;;3.20;0.90;;;;;;;18.97;30.82;99628.13;5113810;27;20023;-62
2022/04/14 01:28:04;;;;;;;1.63;0.85;;;;;;;19.15;30.60;99627.03;5113164;28;20089;-61
2022/04/14 01:30:30;;;;;;;1.58;0.80;;;;;;;19.27;30.46;99636.38;5115281;27;20043;-63
2022/04/14 01:32:56;;;;;;;1.83;0.90;;;;;;;19.41;30.10;99633.97;5112770;28;20027;-63
2022/04/14 01:35:23;;;;;;;0.90;0.57;;;;;;;19.49;30.29;99618.63;5115431;27;20050;-63
2022/04/14 01:37:49;;;;;;;1.88;0.80;;;;;;;19.57;30.09;99617.75;5112918;28;20051;-63
2022/04/14 01:40:15;;;;;;;1.42;0.85;;;;;;;19.63;29.87;99617.06;5112670;27;20461;-63
2022/04/14 01:42:41;;;;;;;1.52;0.68;;;;;;;19.67;29.61;99625.56;5115541;27;20399;-63
2022/04/14 01:45:10;;;;;;;3.67;0.80;;;;;;;19.73;29.44;99624.03;5116113;27;20027;-60
2022/04/14 01:47:40;;;;;;;1.08;0.50;;;;;;;19.76;29.61;99627.22;5112560;27;20114;-64
2022/04/14 01:50:07;;;;;;;0.70;0.55;;;;;;;19.78;29.53;99622.47;5112956;27;20048;-63
2022/04/14 01:52:33;;;;;;;1.38;0.73;;;;;;;19.81;29.80;99632.03;5116660;27;20031;-63
2022/04/14 01:54:59;;;;;;;3.13;0.68;;;;;;;19.82;29.53;99629.16;5116728;27;20035;-64
2022/04/14 01:57:24;;;;;;;3.80;0.63;;;;;;;19.81;29.45;99626.66;5112794;27;20051;-63
2022/04/14 01:59:50;;;;;;;1.30;0.57;;;;;;;19.81;29.45;99632.03;5116785;27;20438;-63
2022/04/14 02:02:15;;;;;;;1.80;0.80;;;;;;;19.83;29.39;99635.38;5112658;27;20036;-65
2022/04/14 02:04:42;;;;;;;1.08;0.60;;;;;;;19.83;29.47;99630.84;5116761;27;20403;-63
2022/04/14 02:07:09;;;;;;;0.93;0.52;;;;;;;19.84;29.46;99626.31;5114757;27;20038;-63
2022/04/14 02:09:35;;;;;;;0.73;0.50;;;;;;;19.84;29.53;99629.00;5116607;27;20023;-63
2022/04/14 02:12:01;;;;;;;0.85;0.52;;;;;;;19.85;29.51;99632.50;5112637;28;20543;-63
2022/04/14 02:14:26;;;;;;;0.60;0.60;;;;;;;19.87;29.18;99641.25;5115628;27;20504;-61
2022/04/14 02:16:53;;;;;;;1.27;0.63;;;;;;;19.88;29.25;99641.06;5113289;28;20031;-65
2022/04/14 02:19:18;;;;;;;1.45;0.80;;;;;;;19.88;29.33;99635.69;5114451;27;20031;-64
2022/04/14 02:21:44;;;;;;;0.60;0.32;;;;;;;19.88;29.49;99642.94;5114192;28;20035;-64
2022/04/14 02:24:09;;;;;;;0.77;0.50;;;;;;;19.89;29.45;99639.22;5122378;27;20484;-63
2022/04/14 02:26:35;;;;;;;1.25;0.70;;;;;;;19.90;29.60;99638.22;5115090;28;20031;-63
2022/04/14 02:29:00;;;;;;;1.15;0.63;;;;;;;19.90;29.73;99640.91;5119602;27;20023;-63
2022/04/14 02:31:26;;;;;;;1.02;0.77;;;;;;;19.90;29.49;99648.97;5112883;28;20539;-65
2022/04/14 02:33:51;;;;;;;0.73;0.50;;;;;;;19.90;29.27;99651.66;5114002;27;20023;-63
2022/04/14 02:36:17;;;;;;;0.90;0.70;;;;;;;19.90;29.62;99647.09;5113306;28;20027;-64
2022/04/14 02:38:43;;;;;;;1.48;0.80;;;;;;;19.91;29.06;99645.25;5113605;27;20490;-64
2022/04/14 02:41:09;;;;;;;1.70;0.88;;;;;;;19.91;29.26;99656.00;5117814;27;20027;-64
2022/04/14 02:43:39;;;;;;;0.98;0.60;;;;;;;19.93;29.38;99653.94;5133087;27;20041;-63
2022/04/14 02:46:05;;;;;;;1.00;0.40;;;;;;;19.94;29.58;99659.16;5115185;28;20039;-65
2022/04/14 02:48:31;;;;;;;1.17;0.70;;;;;;;19.93;29.28;99648.56;5133032;27;20023;-63
2022/04/14 02:50:57;;;;;;;0.50;0.40;;;;;;;19.95;29.51;99655.47;5115026;28;20126;-64
2022/04/14 02:53:22;;;;;;;2.88;1.67;;;;;;;19.94;29.18;99661.00;5125153;27;20119;-64
2022/04/14 02:55:48;;;;;;;3.60;2.20;;;;;;;19.93;28.99;99656.63;5135217;27;20103;-65
2022/04/14 02:58:15;;;;;;;3.38;2.67;;;;;;;19.97;29.09;99668.69;5137349;27;20046;-65
2022/04/14 03:00:40;;;;;;;3.92;2.35;;;;;;;19.96;29.09;99677.75;5137177;27;20084;-64
2022/04/14 03:03:06;;;;;;;5.32;3.08;;;;;;;19.97;29.18;99679.44;5136608;27;20427;-64
2022/04/14 03:05:31;;;;;;;4.07;2.00;;;;;;;19.97;28.92;99674.06;5136825;27;20042;-63
2022/04/14 03:07:57;;;;;;;3.90;2.08;;;;;;;20.00;29.25;99683.63;5137083;27;20080;-65
2022/04/14 03:10:23;;;;;;;2.42;1.20;;;;;;;20.01;29.22;99688.81;5136993;27;20030;-63
2022/04/14 03:12:49;;;;;;;2.70;1.40;;;;;;;20.02;29.15;99687.81;5136233;27;20143;-63
2022/04/14 03:15:15;;;;;;;2.30;1.20;;;;;;;20.04;29.35;99690.31;5142008;27;20035;-63
2022/04/14 03:17:41;;;;;;;3.42;1.08;;;;;;;20.06;28.99;99691.81;5157438;27;20041;-63
2022/04/14 03:20:08;;;;;;;1.25;0.73;;;;;;;20.07;28.96;99680.03;5152814;27;20075;-64
2022/04/14 03:22:34;;;;;;;2.00;1.00;;;;;;;20.09;29.01;99687.91;5134771;27;20112;-64
2022/04/14 03:25:05;;;;;;;2.15;1.15;;;;;;;20.09;28.67;99683.38;5136728;27;20569;-64
2022/04/14 03:27:30;;;;;;;1.38;0.70;;;;;;;20.13;28.90;99697.31;5136359;27;20504;-63
2022/04/14 03:29:56;;;;;;;1.55;0.70;;;;;;;20.16;28.64;99696.91;5136627;27;20039;-63
2022/04/14 03:32:25;;;;;;;0.90;0.50;;;;;;;20.17;28.65;99692.41;5136806;27;20038;-62
2022/04/14 03:34:53;;;;;;;1.17;0.73;;;;;;;20.20;28.47;99689.34;5136444;27;20028;-64
2022/04/14 03:37:19;;;;;;;0.63;0.50;;;;;;;20.22;28.65;99693.53;5136724;27;20592;-62
2022/04/14 03:39:45;;;;;;;2.25;0.98;;;;;;;20.23;28.52;99695.19;5136106;27;20440;-63
2022/04/14 03:42:11;;;;;;;1.17;0.75;;;;;;;20.27;28.33;99688.47;5136314;27;20039;-64
2022/04/14 03:44:36;;;;;;;2.15;0.70;;;;;;;20.30;28.57;99692.63;5136111;27;20026;-63
2022/04/14 03:47:02;;;;;;;0.77;0.60;;;;;;;20.37;28.45;99690.88;5136364;27;20035;-63
2022/04/14 03:49:27;;;;;;;0.90;0.50;;;;;;;20.55;28.30;99693.25;5133403;27;20061;-63
2022/04/14 03:51:55;;;;;;;1.70;0.90;;;;;;;20.69;28.42;99696.16;5136510;27;20066;-64
2022/04/14 03:54:21;;;;;;;1.52;0.70;;;;;;;20.81;28.41;99699.22;5147474;27;20027;-64
2022/04/14 03:56:48;;;;;;;1.83;0.70;;;;;;;20.90;28.55;99700.84;5135901;27;20378;-64
2022/04/14 03:59:14;;;;;;;1.85;0.90;;;;;;;20.96;28.36;99702.75;5134942;27;20389;-63
2022/04/14 04:01:40;;;;;;;1.73;0.70;;;;;;;21.00;28.35;99701.38;5114848;28;20051;-64
2022/04/14 04:04:05;;;;;;;2.70;0.88;;;;;;;21.07;28.65;99700.66;5131654;27;20481;-63
2022/04/14 04:06:31;;;;;;;1.80;0.80;;;;;;;21.13;28.57;99706.13;5136120;27;20041;-63
2022/04/14 04:08:56;;;;;;;1.92;0.95;;;;;;;21.22;28.34;99704.19;5135715;27;20027;-63
2022/04/14 04:11:22;;;;;;;1.83;0.70;;;;;;;21.30;28.16;99705.94;5136156;27;20470;-63
2022/04/14 04:13:47;;;;;;;0.93;0.45;;;;;;;21.42;27.95;99708.97;5135327;27;20051;-62
2022/04/14 04:16:13;;;;;;;1.80;0.93;;;;;;;21.49;27.80;99702.66;5128234;27;20175;-63
2022/04/14 04:18:38;;;;;;;1.17;0.60;;;;;;;21.55;27.87;99703.75;5139651;27;20456;-62
2022/04/14 04:21:04;;;;;;;1.85;0.98;;;;;;;21.62;27.82;99701.16;5152317;27;20039;-62
2022/04/14 04:23:30;;;;;;;0.88;0.60;;;;;;;21.69;27.57;99704.78;5134950;27;20101;-62
2022/04/14 04:25:55;;;;;;;1.85;0.88;;;;;;;21.76;27.45;99710.25;5135810;27;20073;-63
2022/04/14 04:28:21;;;;;;;2.70;0.88;;;;;;;21.80;27.51;99704.28;5134753;27;20401;-64
2022/04/14 04:30:46;;;;;;;0.82;0.65;;;;;;;21.86;27.35;99688.38;5134303;27;20039;-63
2022/04/14 04:33:12;;;;;;;1.65;0.80;;;;;;;21.92;27.22;99695.69;5115054;28;20130;-63
2022/04/14 04:35:37;;;;;;;1.20;0.70;;;;;;;22.06;27.26;99696.66;5114913;28;20038;-63
2022/04/14 04:38:04;;;;;;;1.88;0.75;;;;;;;22.18;27.38;99697.81;5119038;27;20447;-64
2022/04/14 04:40:29;;;;;;;1.73;0.60;;;;;;;22.31;27.20;99690.88;5134916;27;20026;-63
2022/04/14 04:42:55;;;;;;;2.35;0.85;;;;;;;22.48;27.15;99702.25;5134634;27;20079;-65
2022/04/14 04:45:20;;;;;;;1.23;0.70;;;;;;;22.60;26.91;99699.84;5133231;27;20035;-64
2022/04/14 04:47:46;;;;;;;1.38;0.70;;;;;;;22.71;27.12;99700.16;5135354;27;20058;-63
2022/04/14 04:50:11;;;;;;;1.65;0.73;;;;;;;22.78;26.74;99702.06;5135148;27;20106;-62
2022/04/14 04:52:37;;;;;;;2.53;0.90;;;;;;;22.83;26.90;99694.19;5135084;27;20052;-63
2022/04/14 04:55:03;;;;;;;3.72;1.10;;;;;;;22.90;26.77;99702.34;5134539;27;20023;-63
2022/04/14 04:57:28;;;;;;;1.17;0.68;;;;;;;22.95;26.70;99689.09;5134953;27;20043;-62
2022/04/14 04:59:54;;;;;;;1.20;0.60;;;;;;;22.99;26.63;99699.28;5141402;27;20037;-64
2022/04/14 05:02:19;;;;;;;3.00;0.85;;;;;;;23.15;26.79;99698.16;5115940;27;20039;-62
2022/04/14 05:04:45;;;;;;;1.83;1.00;;;;;;;23.37;26.42;99702.66;5114512;28;20031;-63
2022/04/14 05:07:10;;;;;;;6.45;1.20;;;;;;;23.57;26.10;99705.41;5114707;28;20031;-64
2022/04/14 05:09:36;;;;;;;1.73;0.73;;;;;;;23.73;25.92;99701.50;5127935;27;20031;-64
2022/04/14 05:12:03;;;;;;;2.40;0.75;;;;;;;23.87;26.02;99708.63;5134661;27;20031;-65
2022/04/14 05:14:29;;;;;;;3.47;0.70;;;;;;;24.03;25.50;99707.44;5131844;27;20169;-65
2022/04/14 05:16:54;;;;;;;2.10;0.85;;;;;;;24.19;25.23;99691.88;5135205;27;20043;-66
2022/04/14 05:19:19;;;;;;;3.78;1.17;;;;;;;24.35;24.95;99694.16;5134128;27;20119;-65
2022/04/14 05:21:47;;;;;;;1.75;0.75;;;;;;;24.46;25.36;99700.00;5134308;27;20047;-64
2022/04/14 05:24:12;;;;;;;3.78;0.75;;;;;;;24.47;25.30;99702.47;5134217;27;20027;-64
2022/04/14 05:26:38;;;;;;;1.05;0.73;;;;;;;24.55;25.11;99698.72;5134673;27;20031;-64
2022/04/14 05:29:03;;;;;;;1.48;0.60;;;;;;;24.70;25.03;99700.41;5135072;27;20444;-64
2022/04/14 05:31:29;;;;;;;1.95;0.68;;;;;;;24.73;24.54;99702.72;5133577;27;20035;-64
2022/04/14 05:33:54;;;;;;;2.10;0.93;;;;;;;24.82;24.50;99701.44;5134116;27;20397;-65
2022/04/14 05:36:21;;;;;;;5.80;1.10;;;;;;;24.82;24.33;99698.72;5134360;27;20027;-64
2022/04/14 05:38:46;;;;;;;1.48;0.90;;;;;;;24.86;24.67;99699.13;5133746;27;20027;-65
2022/04/14 05:41:12;;;;;;;3.85;0.70;;;;;;;24.88;24.82;99700.59;5134403;27;20029;-63
2022/04/14 05:43:37;;;;;;;3.78;1.40;;;;;;;24.92;24.33;99699.16;5131900;27;20023;-63
2022/04/14 05:46:03;;;;;;;2.60;0.90;;;;;;;24.87;24.38;99696.25;5133966;27;20031;-63
2022/04/14 05:48:29;;;;;;;2.03;0.98;;;;;;;24.72;24.87;99701.03;5134271;27;20399;-63
2022/04/14 05:50:54;;;;;;;2.28;0.90;;;;;;;24.49;25.16;99704.97;5133892;27;20038;-62
2022/04/14 05:53:27;;;;;;;1.90;0.85;;;;;;;24.23;25.55;99696.66;5133457;27;20023;-62
2022/04/14 05:55:52;;;;;;;2.60;0.80;;;;;;;24.08;25.72;99709.53;5133710;27;20028;-63
2022/04/14 05:58:18;;;;;;;2.35;0.80;;;;;;;23.98;25.39;99711.78;5133220;27;20160;-63
2022/04/14 06:00:43;;;;;;;2.88;0.80;;;;;;;23.90;25.98;99704.66;5132885;27;20027;-64
2022/04/14 06:03:09;;;;;;;7.60;1.42;;;;;;;23.85;25.97;99713.38;5133772;27;20035;-63
2022/04/14 06:05:35;;;;;;;2.67;0.80;;;;;;;23.78;26.57;99713.38;5133859;27;20035;-63
2022/04/14 06:08:00;;;;;;;3.72;0.80;;;;;;;23.73;26.70;99709.63;5133642;27;20425;-64
2022/04/14 06:10:26;;;;;;;5.57;1.02;;;;;;;23.68;25.91;99718.34;5133480;27;20473;-63
2022/04/14 06:12:54;;;;;;;4.28;0.90;;;;;;;23.65;26.42;99718.72;5131703;27;20142;-64
2022/04/14 06:15:20;;;;;;;2.58;0.90;;;;;;;23.61;26.42;99718.31;5133567;27;20117;-63
2022/04/14 06:17:45;;;;;;;2.05;0.80;;;;;;;23.57;26.41;99711.63;5133498;27;20508;-63
2022/04/14 06:20:11;;;;;;;4.45;0.90;;;;;;;23.52;26.69;99716.84;5133837;27;20051;-64
2022/04/14 06:22:44;;;;;;;3.25;0.90;;;;;;;23.49;26.52;99719.94;5133152;27;20035;-62
2022/04/14 06:25:14;;;;;;;1.65;0.82;;;;;;;23.46;26.32;99712.22;5132867;27;20037;-64
2022/04/14 06:27:44;;;;;;;3.67;0.90;;;;;;;23.41;26.55;99718.25;5134483;27;20031;-64
2022/04/14 06:30:12;;;;;;;3.17;0.75;;;;;;;23.38;26.30;99718.63;5116605;28;20038;-64
2022/04/14 06:32:38;;;;;;;1.63;0.85;;;;;;;23.39;26.57;99720.31;5113016;28;20040;-63
2022/04/14 06:35:06;;;;;;;8.13;1.00;;;;;;;23.38;26.41;99721.34;5130927;27;20031;-63
2022/04/14 06:37:32;;;;;;;2.28;0.80;;;;;;;23.34;26.44;99711.97;5132815;27;20073;-63
2022/04/14 06:39:58;;;;;;;2.53;1.00;;;;;;;23.29;26.33;99723.38;5133939;28;20035;-62
2022/04/14 06:42:23;;;;;;;3.13;1.05;;;;;;;23.26;26.39;99725.63;5131854;28;20054;-63
2022/04/14 06:44:49;;;;;;;5.57;0.77;;;;;;;23.23;26.48;99712.53;5133531;28;20049;-62
2022/04/14 06:47:15;;;;;;;2.47;1.10;;;;;;;23.19;26.92;99717.47;5133230;27;20043;-62
2022/04/14 06:49:40;;;;;;;2.45;0.80;;;;;;;23.16;26.78;99713.28;5149058;27;20053;-64
2022/04/14 06:52:06;;;;;;;1.67;0.60;;;;;;;23.11;26.82;99721.16;5145869;27;20035;-63
2022/04/14 06:54:31;;;;;;;1.13;0.63;;;;;;;23.09;26.37;99723.22;5132460;27;20409;-62
2022/04/14 06:56:57;;;;;;;1.02;0.60;;;;;;;23.07;26.67;99729.88;5114601;28;20034;-62
2022/04/14 06:59:22;;;;;;;1.40;0.65;;;;;;;23.00;27.02;99719.84;5117075;27;20088;-62
2022/04/14 07:01:48;;;;;;;3.60;0.82;;;;;;;22.97;26.72;99722.13;5133280;28;20039;-62
2022/04/14 07:04:13;;;;;;;3.47;0.70;;;;;;;22.94;26.55;99717.09;5132531;27;20432;-62
2022/04/14 07:06:39;;;;;;;1.10;0.68;;;;;;;22.93;27.14;99720.84;5133306;27;20030;-62
2022/04/14 07:09:04;;;;;;;2.00;1.20;;;;;;;22.88;26.95;99713.34;5132886;27;20039;-64
2022/04/14 07:11:30;;;;;;;3.00;0.95;;;;;;;22.82;26.77;99708.72;5131354;28;20031;-62
2022/04/14 07:13:55;;;;;;;1.45;0.60;;;;;;;22.80;26.77;99714.31;5131930;27;20071;-62
2022/04/14 07:16:21;;;;;;;4.13;0.85;;;;;;;22.82;26.43;99720.38;5134755;27;20386;-63
2022/04/14 07:18:46;;;;;;;1.25;0.55;;;;;;;22.81;26.35;99713.28;5132648;27;20482;-63
2022/04/14 07:21:12;;;;;;;2.88;1.08;;;;;;;22.79;26.55;99715.34;5132663;27;20034;-63
2022/04/14 07:23:38;;;;;;;2.10;0.98;;;;;;;22.75;26.52;99707.84;5143431;27;20027;-61
2022/04/14 07:26:03;;;;;;;2.90;0.93;;;;;;;22.77;26.50;99717.41;5139959;27;20173;-62
2022/04/14 07:28:29;;;;;;;4.70;1.02;;;;;;;22.74;26.36;99707.00;5136236;27;20141;-64
2022/04/14 07:30:55;;;;;;;6.65;1.02;;;;;;;22.75;26.06;99707.84;5133261;28;20035;-64
2022/04/14 07:33:21;;;;;;;1.60;0.50;;;;;;;22.72;26.21;99698.28;5131840;27;20035;-62
2022/04/14 07:35:46;;;;;;;1.52;0.50;;;;;;;22.75;25.95;99697.88;5132863;27;20034;-64
2022/04/14 07:38:13;;;;;;;1.88;0.88;;;;;;;22.75;25.93;99691.66;5134967;27;20088;-65
2022/04/14 07:40:39;;;;;;;11.60;1.15;;;;;;;22.78;26.21;99693.97;5135914;27;20054;-65
2022/04/14 07:43:05;;;;;;;3.58;1.13;;;;;;;22.62;26.13;99701.34;5134814;27;20096;-63
2022/04/14 07:45:30;;;;;;;3.35;0.65;;;;;;;22.36;26.68;99694.66;5136185;27;20031;-64
2022/04/14 07:47:56;;;;;;;5.82;0.93;;;;;;;22.08;26.78;99697.31;5136528;27;20107;-65
2022/04/14 07:50:22;;;;;;;5.25;0.70;;;;;;;21.84;26.70;99687.75;5136001;27;20111;-65
2022/04/14 07:52:56;;;;;;;1.98;1.20;;;;;;;21.61;27.18;99691.44;5139521;27;20030;-64
2022/04/14 07:55:27;;;;;;;2.20;0.80;;;;;;;21.45;27.25;99687.91;5151719;27;20505;-65
2022/04/14 07:57:55;;;;;;;3.78;0.95;;;;;;;21.33;27.07;99689.38;5135432;27;20054;-65
2022/04/14 08:00:23;;;;;;;7.65;1.05;;;;;;;21.22;27.13;99689.88;5136136;27;20038;-64
2022/04/14 08:02:53;;;;;;;4.18;0.85;;;;;;;21.15;26.94;99693.31;5135612;27;20034;-66
2022/04/14 08:05:20;;;;;;;8.40;1.45;;;;;;;21.08;27.25;99694.25;5135796;27;20500;-66
2022/04/14 08:07:46;;;;;;;2.97;0.85;;;;;;;21.01;27.52;99694.16;5135101;27;20039;-63
2022/04/14 08:10:12;;;;;;;4.63;1.15;;;;;;;20.99;27.43;99699.72;5149364;27;20511;-65
2022/04/14 08:12:38;;;;;;;3.65;0.90;;;;;;;20.97;27.27;99701.75;5135460;27;20517;-65
2022/04/14 08:15:04;;;;;;;3.10;1.15;;;;;;;20.95;26.93;99698.44;5135894;27;20074;-68
2022/04/14 08:17:30;;;;;;;6.53;1.30;;;;;;;20.86;27.17;99697.69;5135019;27;20058;-66
2022/04/14 08:19:56;;;;;;;1.95;0.63;;;;;;;20.86;26.53;99710.28;5135646;27;20074;-65
2022/04/14 08:22:21;;;;;;;7.15;0.80;;;;;;;20.80;26.69;99700.28;5137463;27;20529;-66
2022/04/14 08:24:49;;;;;;;3.40;0.93;;;;;;;20.76;27.22;99701.66;5136162;27;20031;-66
2022/04/14 08:27:15;;;;;;;1.85;0.85;;;;;;;20.72;27.12;99704.66;5142518;27;20038;-69
2022/04/14 08:29:41;;;;;;;6.72;1.10;;;;;;;20.69;26.96;99704.22;5139718;27;20033;-68
2022/04/14 08:32:09;;;;;;;4.20;1.20;;;;;;;20.66;26.92;99691.94;5156019;27;20481;-66
2022/04/14 08:34:36;;;;;;;1.05;0.57;;;;;;;20.66;26.74;99699.19;5136808;27;20037;-67
2022/04/14 08:37:01;;;;;;;4.07;0.80;;;;;;;20.62;26.35;99696.03;5130571;27;20061;-66
2022/04/14 08:39:29;;;;;;;3.55;0.73;;;;;;;20.63;26.08;99688.78;5143453;27;20455;-66
2022/04/14 08:42:08;;;;;;;2.38;0.82;;;;;;;20.63;26.30;99699.56;5134492;27;20034;-65
2022/04/14 08:44:36;;;;;;;2.63;0.90;;;;;;;20.61;26.14;99688.13;5132316;27;20030;-65
2022/04/14 08:47:02;;;;;;;4.47;1.20;;;;;;;20.63;26.30;99692.34;5137641;27;20046;-66
2022/04/14 08:49:30;;;;;;;6.97;1.48;;;;;;;20.67;26.41;99668.59;5139859;27;20561;-68
2022/04/14 08:51:56;;;;;;;4.90;4.13;;;;;;;20.66;26.96;99685.75;5152318;27;20042;-68
2022/04/14 08:54:22;;;;;;;8.52;6.00;;;;;;;20.64;26.51;99682.41;5144357;27;20034;-67
2022/04/14 08:56:50;;;;;;;7.95;6.97;;;;;;;20.59;26.54;99685.66;5138715;27;20087;-65
2022/04/14 08:59:18;;;;;;;5.88;4.75;;;;;;;20.62;26.08;99687.97;5134205;27;20023;-67
2022/04/14 09:01:44;;;;;;;7.85;7.05;;;;;;;20.66;26.06;99678.50;5139237;27;20035;-66
2022/04/14 09:04:10;;;;;;;10.25;9.07;;;;;;;20.72;26.39;99676.97;5142424;27;20029;-67
2022/04/14 09:06:36;;;;;;;8.60;4.18;;;;;;;20.74;25.81;99674.91;5138812;27;20386;-65
2022/04/14 09:09:02;;;;;;;14.45;6.78;;;;;;;20.68;26.08;99665.72;5142663;27;20061;-66
2022/04/14 09:11:29;;;;;;;9.65;5.82;;;;;;;20.67;26.15;99661.34;5135431;27;20075;-65
2022/04/14 09:13:55;;;;;;;6.13;5.25;;;;;;;20.66;26.46;99667.75;5138926;27;20059;-65
2022/04/14 09:16:22;;;;;;;9.48;6.18;;;;;;;20.67;26.93;99668.59;5144095;27;20074;-68
2022/04/14 09:18:48;;;;;;;8.80;4.50;;;;;;;20.67;26.82;99664.03;5133981;27;20038;-67
2022/04/14 09:21:14;;;;;;;6.15;3.53;;;;;;;20.65;26.85;99674.19;5127320;27;20474;-67
2022/04/14 09:23:49;;;;;;;6.20;3.75;;;;;;;20.58;27.39;99666.00;5121416;27;20052;-65
2022/04/14 09:26:15;;;;;;;5.55;2.90;;;;;;;20.54;27.14;99651.25;5131007;27;20708;-66
2022/04/14 09:28:59;;;;;;;8.65;2.15;;;;;;;20.51;26.47;99656.16;5133963;27;20037;-66
2022/04/14 09:31:25;;;;;;;3.47;2.15;;;;;;;20.42;26.58;99660.78;5134602;27;20061;-64
2022/04/14 09:33:51;;;;;;;7.55;2.00;;;;;;;20.38;26.94;99656.78;5134085;27;20458;-65
2022/04/14 09:36:19;;;;;;;2.97;1.50;;;;;;;20.35;26.52;99655.31;5134512;27;20122;-64
2022/04/14 09:38:59;;;;;;;4.60;1.40;;;;;;;20.32;26.66;99662.88;5134202;27;20027;-64
2022/04/14 09:41:40;;;;;;;3.47;1.83;;;;;;;20.30;26.91;99664.91;5134409;27;20038;-66
2022/04/14 09:44:08;;;;;;;2.53;1.02;;;;;;;20.24;27.05;99653.03;5141685;27;20410;-64
2022/04/14 09:46:35;;;;;;;6.75;1.75;;;;;;;20.26;27.04;99659.91;5130601;27;20035;-66
2022/04/14 09:49:03;;;;;;;4.47;1.90;;;;;;;20.30;27.21;99652.31;5115542;27;20082;-65
2022/04/14 09:51:29;;;;;;;2.22;1.10;;;;;;;20.34;27.08;99650.09;5133907;27;20041;-64
2022/04/14 09:54:15;;;;;;;2.42;1.30;;;;;;;20.34;27.10;99659.00;5133651;27;20031;-66
2022/04/14 09:56:51;;;;;;;5.45;1.42;;;;;;;20.32;27.10;99649.44;5133919;27;20035;-66
2022/04/14 09:59:19;;;;;;;5.78;1.05;;;;;;;20.32;27.07;99644.06;5132708;27;20477;-66
2022/04/14 10:01:46;;;;;;;5.80;1.20;;;;;;;20.26;26.59;99654.53;5133484;27;20046;-68
2022/04/14 10:04:32;;;;;;;4.72;1.38;;;;;;;20.25;26.91;99642.13;5115235;27;20397;-65
2022/04/14 10:07:10;;;;;;;5.05;1.40;;;;;;;20.24;26.67;99644.97;5133094;27;20030;-65
2022/04/14 10:09:40;;;;;;;5.47;1.05;;;;;;;20.21;27.64;99646.19;5133509;27;20058;-66
2022/04/14 10:12:17;;;;;;;2.70;1.40;;;;;;;20.25;27.86;99652.88;5114244;27;20056;-66
2022/04/14 10:14:57;;;;;;;5.30;1.20;;;;;;;20.24;27.74;99639.59;5133146;27;20312;-66
2022/04/14 10:17:26;;;;;;;4.90;0.90;;;;;;;20.27;27.53;99644.63;5133315;27;20035;-67
2022/04/14 10:19:52;;;;;;;1.50;0.90;;;;;;;20.27;27.09;99656.22;5133642;27;20034;-66
2022/04/14 10:22:19;;;;;;;1.63;1.02;;;;;;;20.25;27.29;99642.13;5113556;27;20095;-64
2022/04/14 10:24:45;;;;;;;1.85;0.93;;;;;;;20.26;27.21;99648.31;5133593;28;20151;-65
2022/04/14 10:27:13;;;;;;;1.20;0.93;;;;;;;20.25;26.77;99649.34;5132738;27;20504;-67
2022/04/14 10:29:41;;;;;;;2.63;0.68;;;;;;;20.25;26.99;99654.69;5133483;27;20493;-67
2022/04/14 10:32:07;;;;;;;1.58;0.82;;;;;;;20.22;27.30;99655.09;5133089;27;20103;-66
2022/04/14 10:34:33;;;;;;;2.10;0.95;;;;;;;20.21;27.44;99658.78;5133607;28;20038;-67
2022/04/14 10:37:01;;;;;;;3.05;1.05;;;;;;;20.21;27.91;99648.03;5133788;28;20035;-66
2022/04/14 10:39:29;;;;;;;1.80;0.75;;;;;;;20.22;27.78;99638.97;5132122;27;20035;-65
2022/04/14 10:41:56;;;;;;;2.72;1.10;;;;;;;20.22;28.63;99647.03;5133334;28;20099;-66
2022/04/14 10:44:22;;;;;;;2.72;1.00;;;;;;;20.22;29.11;99647.84;5133552;27;20027;-66
2022/04/14 10:46:51;;;;;;;3.05;0.75;;;;;;;20.24;28.38;99640.44;5133287;28;20035;-67
2022/04/14 10:49:23;;;;;;;2.40;0.98;;;;;;;20.23;27.92;99645.97;5132592;27;20043;-67
2022/04/14 10:51:53;;;;;;;2.72;0.70;;;;;;;20.23;28.11;99635.25;5132972;27;20540;-66
2022/04/14 10:54:19;;;;;;;1.70;0.88;;;;;;;20.19;27.54;99625.91;5132671;27;20035;-66
2022/04/14 10:56:47;;;;;;;3.20;1.35;;;;;;;20.16;27.59;99626.25;5133128;28;20031;-66
2022/04/14 10:59:42;;;;;;;2.13;1.02;;;;;;;20.13;27.58;99630.97;5132810;27;20406;-65
2022/04/14 11:02:07;;;;;;;2.55;0.88;;;;;;;20.09;26.82;99637.72;5120600;27;20043;-66
2022/04/14 11:04:33;;;;;;;2.20;0.65;;;;;;;20.08;26.78;99621.78;5132901;27;20501;-65
2022/04/14 11:07:15;;;;;;;3.90;0.82;;;;;;;20.10;27.42;99620.56;5133319;28;20113;-65
2022/04/14 11:09:43;;;;;;;4.53;0.93;;;;;;;20.14;26.95;99621.06;5133306;28;20023;-67
2022/04/14 11:12:09;;;;;;;2.28;0.93;;;;;;;20.15;27.45;99611.16;5133274;27;20555;-65
2022/04/14 11:14:37;;;;;;;1.45;0.50;;;;;;;20.16;27.01;99626.25;5136539;27;20074;-64
2022/04/14 11:17:03;;;;;;;9.68;1.08;;;;;;;20.15;26.61;99617.34;5136630;27;20090;-65
2022/04/14 11:19:30;;;;;;;2.28;0.70;;;;;;;20.13;26.24;99606.78;5136767;27;20494;-65
2022/04/14 11:22:02;;;;;;;1.27;0.50;;;;;;;20.10;26.53;99609.84;5136562;27;20443;-65
2022/04/14 11:24:36;;;;;;;1.35;0.70;;;;;;;20.08;26.70;99608.34;5136791;27;20379;-64
2022/04/14 11:27:30;;;;;;;0.85;0.47;;;;;;;20.06;26.70;99596.94;5136694;27;20035;-64
2022/04/14 11:30:00;;;;;;;1.73;0.60;;;;;;;20.07;26.64;99604.81;5133149;27;20069;-64
2022/04/14 11:32:35;;;;;;;1.00;0.30;;;;;;;20.10;26.31;99609.00;5136385;27;20131;-65
2022/04/14 11:35:16;;;;;;;1.42;0.47;;;;;;;20.09;26.01;99601.97;5135714;27;20027;-66
2022/04/14 11:37:49;;;;;;;;;;;;;;;20.01;26.27;99593.97;5137122;27;20031;-65